createdAt,value
2018-07-11T00:00:10.244Z,1002.65
2018-07-11T00:00:50.755Z,1002.62
2018-07-11T00:01:31.288Z,1002.64
2018-07-11T00:02:11.813Z,1002.65
2018-07-11T00:02:52.330Z,1002.68
2018-07-11T00:03:32.852Z,1002.61
2018-07-11T00:04:13.378Z,1002.61
2018-07-11T00:04:53.906Z,1002.62
2018-07-11T00:05:34.423Z,1002.59
2018-07-11T00:06:14.947Z,1002.6
2018-07-11T00:06:55.490Z,1002.59
2018-07-11T00:07:36.014Z,1002.63
2018-07-11T00:08:16.534Z,1002.62
2018-07-11T00:08:57.047Z,1002.6
2018-07-11T00:09:37.557Z,1002.64
2018-07-11T00:10:18.086Z,1002.63
2018-07-11T00:10:58.616Z,1002.62
2018-07-11T00:11:39.150Z,1002.59
2018-07-11T00:12:19.673Z,1002.58
2018-07-11T00:13:00.205Z,1002.58
2018-07-11T00:13:40.726Z,1002.56
2018-07-11T00:14:21.265Z,1002.62
2018-07-11T00:15:01.829Z,1002.54
2018-07-11T00:15:42.325Z,1002.54
2018-07-11T00:16:22.852Z,1002.5
2018-07-11T00:17:03.372Z,1002.54
2018-07-11T00:17:43.896Z,1002.52
2018-07-11T00:18:24.416Z,1002.52
2018-07-11T00:19:04.931Z,1002.55
2018-07-11T00:19:45.467Z,1002.57
2018-07-11T00:20:25.990Z,1002.57
2018-07-11T00:21:06.531Z,1002.57
2018-07-11T00:21:47.072Z,1002.56
2018-07-11T00:22:27.603Z,1002.59
2018-07-11T00:23:08.125Z,1002.56
2018-07-11T00:23:48.658Z,1002.58
2018-07-11T00:24:29.189Z,1002.49
2018-07-11T00:25:09.715Z,1002.55
2018-07-11T00:25:50.242Z,1002.57
2018-07-11T00:26:30.779Z,1002.55
2018-07-11T00:27:11.320Z,1002.48
2018-07-11T00:27:51.827Z,1002.5
2018-07-11T00:28:32.351Z,1002.53
2018-07-11T00:29:12.883Z,1002.51
2018-07-11T00:29:53.405Z,1002.51
2018-07-11T00:30:33.923Z,1002.52
2018-07-11T00:31:14.440Z,1002.56
2018-07-11T00:31:54.956Z,1002.5
2018-07-11T00:32:35.488Z,1002.51
2018-07-11T00:33:16.020Z,1002.5
2018-07-11T00:33:56.545Z,1002.54
2018-07-11T00:34:37.071Z,1002.54
2018-07-11T00:35:17.592Z,1002.48
2018-07-11T00:35:58.136Z,1002.53
2018-07-11T00:36:38.687Z,1002.56
2018-07-11T00:37:19.377Z,1002.51
2018-07-11T00:37:59.729Z,1002.5
2018-07-11T00:38:40.248Z,1002.5
2018-07-11T00:39:20.766Z,1002.47
2018-07-11T00:40:01.290Z,1002.48
2018-07-11T00:40:41.809Z,1002.5
2018-07-11T00:41:22.327Z,1002.49
2018-07-11T00:42:02.845Z,1002.5
2018-07-11T00:42:43.367Z,1002.46
2018-07-11T00:43:23.878Z,1002.48
2018-07-11T00:44:04.399Z,1002.42
2018-07-11T00:44:44.928Z,1002.46
2018-07-11T00:45:25.434Z,1002.46
2018-07-11T00:46:05.962Z,1002.44
2018-07-11T00:46:46.487Z,1002.43
2018-07-11T00:47:27.023Z,1002.43
2018-07-11T00:48:07.559Z,1002.41
2018-07-11T00:48:48.093Z,1002.45
2018-07-11T00:49:28.646Z,1002.42
2018-07-11T00:50:09.163Z,1002.47
2018-07-11T00:50:49.689Z,1002.45
2018-07-11T00:51:30.218Z,1002.42
2018-07-11T00:52:10.738Z,1002.41
2018-07-11T00:52:51.278Z,1002.43
2018-07-11T00:53:31.807Z,1002.43
2018-07-11T00:54:12.334Z,1002.47
2018-07-11T00:54:52.860Z,1002.42
2018-07-11T00:55:33.388Z,1002.45
2018-07-11T00:56:13.911Z,1002.46
2018-07-11T00:56:54.444Z,1002.5
2018-07-11T00:57:34.996Z,1002.42
2018-07-11T00:58:15.529Z,1002.45
2018-07-11T00:58:56.052Z,1002.42
2018-07-11T01:01:14.623Z,1002.41
2018-07-11T01:01:55.149Z,1002.38
2018-07-11T01:02:35.674Z,1002.43
2018-07-11T01:03:16.215Z,1002.45
2018-07-11T01:03:56.742Z,1002.44
2018-07-11T01:04:37.271Z,1002.48
2018-07-11T01:05:17.786Z,1002.44
2018-07-11T01:05:58.313Z,1002.49
2018-07-11T01:06:38.821Z,1002.47
2018-07-11T01:07:19.350Z,1002.49
2018-07-11T01:07:59.866Z,1002.5
2018-07-11T01:08:40.385Z,1002.48
2018-07-11T01:09:20.917Z,1002.52
2018-07-11T01:10:01.438Z,1002.51
2018-07-11T01:10:41.956Z,1002.53
2018-07-11T01:11:22.489Z,1002.54
2018-07-11T01:12:03.000Z,1002.57
2018-07-11T01:12:43.529Z,1002.54
2018-07-11T01:13:24.052Z,1002.55
2018-07-11T01:14:04.576Z,1002.51
2018-07-11T01:14:45.102Z,1002.52
2018-07-11T01:15:25.603Z,1002.49
2018-07-11T01:16:06.120Z,1002.49
2018-07-11T01:16:46.651Z,1002.52
2018-07-11T01:17:27.167Z,1002.51
2018-07-11T01:18:07.705Z,1002.46
2018-07-11T01:18:48.235Z,1002.47
2018-07-11T01:19:28.768Z,1002.5
2018-07-11T01:20:09.286Z,1002.48
2018-07-11T01:20:49.811Z,1002.49
2018-07-11T01:21:30.335Z,1002.46
2018-07-11T01:22:10.864Z,1002.42
2018-07-11T01:22:51.387Z,1002.44
2018-07-11T01:23:31.904Z,1002.44
2018-07-11T01:24:12.426Z,1002.41
2018-07-11T01:24:52.939Z,1002.41
2018-07-11T01:25:33.465Z,1002.42
2018-07-11T01:26:13.989Z,1002.44
2018-07-11T01:26:55.379Z,1002.42
2018-07-11T01:27:35.895Z,1002.45
2018-07-11T01:28:16.416Z,1002.41
2018-07-11T01:28:57.004Z,1002.44
2018-07-11T01:29:37.524Z,1002.41
2018-07-11T01:30:18.034Z,1002.5
2018-07-11T01:30:58.547Z,1002.45
2018-07-11T01:31:39.052Z,1002.47
2018-07-11T01:32:19.581Z,1002.49
2018-07-11T01:33:00.093Z,1002.47
2018-07-11T01:33:40.609Z,1002.45
2018-07-11T01:34:21.131Z,1002.49
2018-07-11T01:35:01.650Z,1002.49
2018-07-11T01:35:42.166Z,1002.44
2018-07-11T01:36:22.680Z,1002.47
2018-07-11T01:37:03.196Z,1002.45
2018-07-11T01:37:43.713Z,1002.48
2018-07-11T01:38:24.225Z,1002.45
2018-07-11T01:39:04.740Z,1002.47
2018-07-11T01:39:45.268Z,1002.43
2018-07-11T01:40:25.789Z,1002.47
2018-07-11T01:41:06.303Z,1002.43
2018-07-11T01:41:46.821Z,1002.47
2018-07-11T01:42:27.352Z,1002.5
2018-07-11T01:43:07.878Z,1002.52
2018-07-11T01:43:48.413Z,1002.5
2018-07-11T01:44:28.914Z,1002.5
2018-07-11T01:45:09.427Z,1002.57
2018-07-11T01:45:49.969Z,1002.55
2018-07-11T01:46:30.490Z,1002.61
2018-07-11T01:47:11.025Z,1002.59
2018-07-11T01:47:51.532Z,1002.58
2018-07-11T01:48:32.050Z,1002.6
2018-07-11T01:49:12.594Z,1002.6
2018-07-11T01:49:53.089Z,1002.57
2018-07-11T01:50:33.605Z,1002.49
2018-07-11T01:51:14.144Z,1002.5
2018-07-11T01:51:54.654Z,1002.51
2018-07-11T01:52:35.162Z,1002.48
2018-07-11T01:53:15.685Z,1002.52
2018-07-11T01:53:56.223Z,1002.54
2018-07-11T01:54:37.396Z,1002.52
2018-07-11T01:55:17.924Z,1002.51
2018-07-11T01:55:58.440Z,1002.51
2018-07-11T01:56:38.965Z,1002.51
2018-07-11T01:57:19.511Z,1002.48
2018-07-11T01:58:00.041Z,1002.49
2018-07-11T01:58:40.552Z,1002.5
2018-07-11T01:59:21.096Z,1002.47
2018-07-11T02:00:01.619Z,1002.51
2018-07-11T02:00:42.135Z,1002.48
2018-07-11T02:01:22.650Z,1002.51
2018-07-11T02:02:03.178Z,1002.49
2018-07-11T02:02:43.704Z,1002.53
2018-07-11T02:03:24.247Z,1002.49
2018-07-11T02:04:04.765Z,1002.52
2018-07-11T02:04:45.280Z,1002.48
2018-07-11T02:05:25.795Z,1002.44
2018-07-11T02:06:06.318Z,1002.48
2018-07-11T02:06:46.860Z,1002.47
2018-07-11T02:07:27.385Z,1002.48
2018-07-11T02:08:07.905Z,1002.44
2018-07-11T02:08:48.429Z,1002.46
2018-07-11T02:09:28.949Z,1002.5
2018-07-11T02:10:09.471Z,1002.48
2018-07-11T02:10:49.989Z,1002.48
2018-07-11T02:11:30.517Z,1002.47
2018-07-11T02:12:11.033Z,1002.45
2018-07-11T02:12:51.555Z,1002.48
2018-07-11T02:13:32.091Z,1002.48
2018-07-11T02:14:12.603Z,1002.5
2018-07-11T02:14:53.123Z,1002.47
2018-07-11T02:15:33.650Z,1002.46
2018-07-11T02:16:14.154Z,1002.49
2018-07-11T02:16:54.686Z,1002.46
2018-07-11T02:17:35.217Z,1002.48
2018-07-11T02:18:15.745Z,1002.47
2018-07-11T02:18:56.275Z,1002.48
2018-07-11T02:19:36.793Z,1002.5
2018-07-11T02:20:17.324Z,1002.52
2018-07-11T02:20:57.848Z,1002.46
2018-07-11T02:21:38.377Z,1002.5
2018-07-11T02:22:18.898Z,1002.52
2018-07-11T02:22:59.414Z,1002.47
2018-07-11T02:23:39.936Z,1002.46
2018-07-11T02:24:20.465Z,1002.49
2018-07-11T02:25:00.986Z,1002.55
2018-07-11T02:25:41.514Z,1002.53
2018-07-11T02:26:22.044Z,1002.54
2018-07-11T02:27:02.559Z,1002.51
2018-07-11T02:27:43.060Z,1002.48
2018-07-11T02:28:23.591Z,1002.53
2018-07-11T02:29:04.095Z,1002.57
2018-07-11T02:29:44.610Z,1002.56
2018-07-11T02:30:25.135Z,1002.54
2018-07-11T02:31:05.656Z,1002.58
2018-07-11T02:31:46.177Z,1002.56
2018-07-11T02:32:26.690Z,1002.6
2018-07-11T02:33:07.209Z,1002.58
2018-07-11T02:33:47.736Z,1002.58
2018-07-11T02:34:28.259Z,1002.56
2018-07-11T02:35:08.783Z,1002.58
2018-07-11T02:35:49.302Z,1002.55
2018-07-11T02:36:29.820Z,1002.57
2018-07-11T02:37:10.354Z,1002.58
2018-07-11T02:37:50.873Z,1002.55
2018-07-11T02:38:31.402Z,1002.58
2018-07-11T02:39:11.935Z,1002.53
2018-07-11T02:39:52.438Z,1002.59
2018-07-11T02:40:32.952Z,1002.57
2018-07-11T02:41:13.466Z,1002.57
2018-07-11T02:41:53.992Z,1002.56
2018-07-11T02:42:34.508Z,1002.6
2018-07-11T02:43:15.025Z,1002.59
2018-07-11T02:43:55.544Z,1002.61
2018-07-11T02:44:36.075Z,1002.58
2018-07-11T02:45:16.595Z,1002.57
2018-07-11T02:45:57.113Z,1002.55
2018-07-11T02:46:37.665Z,1002.56
2018-07-11T02:47:18.194Z,1002.57
2018-07-11T02:47:58.702Z,1002.54
2018-07-11T02:48:39.258Z,1002.49
2018-07-11T02:49:19.768Z,1002.54
2018-07-11T02:50:00.294Z,1002.56
2018-07-11T02:50:40.828Z,1002.52
2018-07-11T02:51:21.332Z,1002.54
2018-07-11T02:52:01.854Z,1002.52
2018-07-11T02:52:42.381Z,1002.53
2018-07-11T02:53:22.908Z,1002.57
2018-07-11T02:54:03.425Z,1002.61
2018-07-11T02:54:43.947Z,1002.62
2018-07-11T02:55:24.483Z,1002.58
2018-07-11T02:56:05.013Z,1002.67
2018-07-11T02:56:45.523Z,1002.63
2018-07-11T02:57:26.041Z,1002.61
2018-07-11T02:58:06.565Z,1002.63
2018-07-11T02:58:47.092Z,1002.57
2018-07-11T02:59:27.598Z,1002.61
2018-07-11T03:00:08.130Z,1002.6
2018-07-11T03:00:48.710Z,1002.58
2018-07-11T03:01:29.244Z,1002.58
2018-07-11T03:02:09.768Z,1002.58
2018-07-11T03:02:50.284Z,1002.55
2018-07-11T03:03:30.810Z,1002.57
2018-07-11T03:04:11.327Z,1002.56
2018-07-11T03:04:51.847Z,1002.58
2018-07-11T03:05:32.373Z,1002.59
2018-07-11T03:06:12.909Z,1002.57
2018-07-11T03:06:53.422Z,1002.59
2018-07-11T03:07:33.944Z,1002.59
2018-07-11T03:08:14.478Z,1002.58
2018-07-11T03:08:55.009Z,1002.57
2018-07-11T03:09:35.531Z,1002.55
2018-07-11T03:10:16.050Z,1002.57
2018-07-11T03:10:56.565Z,1002.6
2018-07-11T03:11:37.102Z,1002.59
2018-07-11T03:12:17.640Z,1002.59
2018-07-11T03:12:58.140Z,1002.55
2018-07-11T03:13:38.657Z,1002.57
2018-07-11T03:14:19.192Z,1002.59
2018-07-11T03:14:59.725Z,1002.57
2018-07-11T03:15:40.244Z,1002.58
2018-07-11T03:16:20.775Z,1002.58
2018-07-11T03:17:01.292Z,1002.52
2018-07-11T03:17:41.811Z,1002.54
2018-07-11T03:18:22.340Z,1002.58
2018-07-11T03:19:02.868Z,1002.54
2018-07-11T03:19:43.398Z,1002.55
2018-07-11T03:20:23.911Z,1002.53
2018-07-11T03:21:04.450Z,1002.52
2018-07-11T03:21:44.967Z,1002.57
2018-07-11T03:22:25.500Z,1002.57
2018-07-11T03:23:06.024Z,1002.52
2018-07-11T03:23:46.541Z,1002.52
2018-07-11T03:24:27.056Z,1002.56
2018-07-11T03:25:07.586Z,1002.57
2018-07-11T03:25:48.109Z,1002.57
2018-07-11T03:26:28.635Z,1002.58
2018-07-11T03:27:09.145Z,1002.61
2018-07-11T03:27:49.671Z,1002.57
2018-07-11T03:28:30.193Z,1002.62
2018-07-11T03:29:10.713Z,1002.61
2018-07-11T03:29:51.243Z,1002.65
2018-07-11T03:30:31.811Z,1002.65
2018-07-11T03:31:12.323Z,1002.64
2018-07-11T03:31:52.840Z,1002.65
2018-07-11T03:32:33.431Z,1002.63
2018-07-11T03:33:13.883Z,1002.6
2018-07-11T03:33:54.420Z,1002.61
2018-07-11T03:34:34.931Z,1002.56
2018-07-11T03:35:15.456Z,1002.59
2018-07-11T03:35:55.975Z,1002.61
2018-07-11T03:36:36.496Z,1002.6
2018-07-11T03:37:17.009Z,1002.65
2018-07-11T03:37:57.542Z,1002.65
2018-07-11T03:38:38.086Z,1002.67
2018-07-11T03:39:18.605Z,1002.65
2018-07-11T03:39:59.122Z,1002.65
2018-07-11T03:40:39.641Z,1002.66
2018-07-11T03:41:20.191Z,1002.65
2018-07-11T03:42:00.671Z,1002.64
2018-07-11T03:42:41.201Z,1002.66
2018-07-11T03:43:21.705Z,1002.65
2018-07-11T03:44:02.217Z,1002.63
2018-07-11T03:44:42.751Z,1002.64
2018-07-11T03:45:23.280Z,1002.71
2018-07-11T03:46:03.851Z,1002.68
2018-07-11T03:46:44.327Z,1002.69
2018-07-11T03:47:24.858Z,1002.66
2018-07-11T03:48:05.429Z,1002.67
2018-07-11T03:48:45.913Z,1002.69
2018-07-11T03:49:26.441Z,1002.67
2018-07-11T03:50:06.960Z,1002.65
2018-07-11T03:50:47.483Z,1002.63
2018-07-11T03:51:28.012Z,1002.68
2018-07-11T03:52:09.972Z,1002.71
2018-07-11T03:52:50.809Z,1002.68
2018-07-11T03:53:31.311Z,1002.7
2018-07-11T03:54:11.826Z,1002.66
2018-07-11T03:54:52.344Z,1002.67
2018-07-11T03:55:32.863Z,1002.68
2018-07-11T03:56:13.385Z,1002.7
2018-07-11T03:56:53.889Z,1002.71
2018-07-11T03:57:34.456Z,1002.71
2018-07-11T03:58:14.973Z,1002.72
2018-07-11T03:58:55.494Z,1002.68
2018-07-11T03:59:36.009Z,1002.74
2018-07-11T04:00:16.535Z,1002.72
2018-07-11T04:00:57.032Z,1002.74
2018-07-11T04:01:37.628Z,1002.72
2018-07-11T04:02:18.115Z,1002.77
2018-07-11T04:02:58.624Z,1002.71
2018-07-11T04:03:39.163Z,1002.74
2018-07-11T04:04:19.688Z,1002.74
2018-07-11T04:05:00.205Z,1002.73
2018-07-11T04:05:40.723Z,1002.71
2018-07-11T04:06:21.259Z,1002.75
2018-07-11T04:07:01.754Z,1002.69
2018-07-11T04:07:42.285Z,1002.73
2018-07-11T04:08:22.800Z,1002.76
2018-07-11T04:09:03.420Z,1002.74
2018-07-11T04:09:43.827Z,1002.74
2018-07-11T04:10:24.319Z,1002.7
2018-07-11T04:11:04.839Z,1002.69
2018-07-11T04:11:45.357Z,1002.72
2018-07-11T04:12:25.909Z,1002.72
2018-07-11T04:13:06.428Z,1002.73
2018-07-11T04:13:46.946Z,1002.71
2018-07-11T04:14:27.460Z,1002.74
2018-07-11T04:15:07.968Z,1002.72
2018-07-11T04:15:48.491Z,1002.74
2018-07-11T04:16:29.019Z,1002.76
2018-07-11T04:17:09.545Z,1002.77
2018-07-11T04:17:50.078Z,1002.76
2018-07-11T04:18:30.623Z,1002.78
2018-07-11T04:19:11.248Z,1002.8
2018-07-11T04:19:51.656Z,1002.79
2018-07-11T04:20:32.176Z,1002.82
2018-07-11T04:21:12.701Z,1002.76
2018-07-11T04:21:53.224Z,1002.81
2018-07-11T04:22:33.752Z,1002.8
2018-07-11T04:23:14.274Z,1002.76
2018-07-11T04:23:54.815Z,1002.79
2018-07-11T04:24:35.339Z,1002.79
2018-07-11T04:25:15.845Z,1002.8
2018-07-11T04:25:56.369Z,1002.78
2018-07-11T04:26:36.874Z,1002.8
2018-07-11T04:27:17.399Z,1002.8
2018-07-11T04:27:57.920Z,1002.77
2018-07-11T04:28:38.458Z,1002.77
2018-07-11T04:29:18.983Z,1002.8
2018-07-11T04:29:59.510Z,1002.79
2018-07-11T04:30:40.036Z,1002.77
2018-07-11T04:31:20.553Z,1002.78
2018-07-11T04:32:01.081Z,1002.77
2018-07-11T04:32:41.597Z,1002.77
2018-07-11T04:33:22.166Z,1002.78
2018-07-11T04:34:02.659Z,1002.81
2018-07-11T04:34:43.259Z,1002.81
2018-07-11T04:35:23.707Z,1002.78
2018-07-11T04:36:04.237Z,1002.78
2018-07-11T04:36:44.754Z,1002.77
2018-07-11T04:37:25.269Z,1002.78
2018-07-11T04:38:05.780Z,1002.83
2018-07-11T04:38:46.300Z,1002.84
2018-07-11T04:39:26.813Z,1002.86
2018-07-11T04:40:07.339Z,1002.81
2018-07-11T04:40:47.853Z,1002.78
2018-07-11T04:41:28.385Z,1002.84
2018-07-11T04:42:08.896Z,1002.84
2018-07-11T04:42:49.458Z,1002.85
2018-07-11T04:43:29.937Z,1002.82
2018-07-11T04:44:10.465Z,1002.84
2018-07-11T04:44:51.010Z,1002.87
2018-07-11T04:45:31.552Z,1002.86
2018-07-11T04:46:12.067Z,1002.9
2018-07-11T04:46:52.615Z,1002.87
2018-07-11T04:47:33.151Z,1002.9
2018-07-11T04:48:13.665Z,1002.91
2018-07-11T04:48:54.190Z,1002.9
2018-07-11T04:49:34.731Z,1002.9
2018-07-11T04:50:15.239Z,1002.9
2018-07-11T04:50:55.773Z,1002.85
2018-07-11T04:51:36.305Z,1002.89
2018-07-11T04:52:16.820Z,1002.9
2018-07-11T04:52:57.379Z,1002.89
2018-07-11T04:53:37.921Z,1002.91
2018-07-11T04:54:18.438Z,1002.91
2018-07-11T04:54:58.954Z,1002.94
2018-07-11T04:55:39.494Z,1002.9
2018-07-11T04:56:20.017Z,1002.95
2018-07-11T04:57:00.554Z,1002.92
2018-07-11T04:57:41.093Z,1002.89
2018-07-11T04:58:21.619Z,1002.91
2018-07-11T04:59:02.133Z,1002.92
2018-07-11T04:59:42.651Z,1002.91
2018-07-11T05:00:23.172Z,1002.94
2018-07-11T05:01:03.690Z,1002.92
2018-07-11T05:01:44.207Z,1002.94
2018-07-11T05:02:24.732Z,1002.96
2018-07-11T05:03:05.255Z,1002.96
2018-07-11T05:03:45.791Z,1002.93
2018-07-11T05:04:26.312Z,1002.97
2018-07-11T05:05:06.846Z,1002.93
2018-07-11T05:05:47.378Z,1002.92
2018-07-11T05:06:27.896Z,1002.99
2018-07-11T05:07:08.456Z,1002.99
2018-07-11T05:07:48.934Z,1003.01
2018-07-11T05:08:29.455Z,1002.98
2018-07-11T05:09:09.974Z,1003
2018-07-11T05:09:50.482Z,1003
2018-07-11T05:10:30.998Z,1002.98
2018-07-11T05:11:11.578Z,1003.04
2018-07-11T05:11:52.055Z,1003.08
2018-07-11T05:12:32.655Z,1003.03
2018-07-11T05:13:13.101Z,1003
2018-07-11T05:13:53.631Z,1003.01
2018-07-11T05:14:34.147Z,1002.98
2018-07-11T05:15:14.660Z,1002.98
2018-07-11T05:15:55.172Z,1002.96
2018-07-11T05:16:35.669Z,1002.98
2018-07-11T05:17:16.175Z,1003
2018-07-11T05:17:56.682Z,1003
2018-07-11T05:18:37.210Z,1002.95
2018-07-11T05:19:17.722Z,1003.01
2018-07-11T05:19:58.233Z,1002.99
2018-07-11T05:20:38.744Z,1002.97
2018-07-11T05:21:19.259Z,1002.98
2018-07-11T05:21:59.806Z,1003.01
2018-07-11T05:22:40.330Z,1002.98
2018-07-11T05:23:20.877Z,1002.98
2018-07-11T05:24:01.425Z,1002.97
2018-07-11T05:24:41.949Z,1003
2018-07-11T05:25:22.455Z,1003
2018-07-11T05:26:02.990Z,1003.03
2018-07-11T05:26:43.550Z,1003.02
2018-07-11T05:27:24.035Z,1003.06
2018-07-11T05:28:04.524Z,1003.09
2018-07-11T05:28:45.041Z,1003.07
2018-07-11T05:29:25.572Z,1003.1
2018-07-11T05:30:06.095Z,1003.13
2018-07-11T05:30:46.634Z,1003.03
2018-07-11T05:31:27.117Z,1003.05
2018-07-11T05:32:07.688Z,1003.09
2018-07-11T05:32:48.210Z,1003.06
2018-07-11T05:33:28.781Z,1003.04
2018-07-11T05:34:09.292Z,1003.1
2018-07-11T05:34:49.824Z,1003.04
2018-07-11T05:35:30.335Z,1003.04
2018-07-11T05:36:10.856Z,1003.07
2018-07-11T05:36:51.376Z,1003.11
2018-07-11T05:37:31.894Z,1003.05
2018-07-11T05:38:12.417Z,1003.12
2018-07-11T05:38:52.922Z,1003.05
2018-07-11T05:39:33.457Z,1003.15
2018-07-11T05:40:13.975Z,1003.11
2018-07-11T05:40:54.555Z,1003.13
2018-07-11T05:41:35.058Z,1003.11
2018-07-11T05:42:15.630Z,1003.09
2018-07-11T05:42:56.134Z,1003.14
2018-07-11T05:43:36.658Z,1003.15
2018-07-11T05:44:17.174Z,1003.1
2018-07-11T05:44:57.695Z,1003.15
2018-07-11T05:45:38.233Z,1003.11
2018-07-11T05:46:18.758Z,1003.07
2018-07-11T05:46:59.274Z,1003.08
2018-07-11T05:47:39.790Z,1003.07
2018-07-11T05:48:20.403Z,1003.04
2018-07-11T05:49:00.871Z,1003.08
2018-07-11T05:49:41.405Z,1003.09
2018-07-11T05:50:21.925Z,1003.09
2018-07-11T05:51:02.458Z,1003.11
2018-07-11T05:51:43.024Z,1003.11
2018-07-11T05:52:23.550Z,1003.17
2018-07-11T05:53:04.064Z,1003.14
2018-07-11T05:53:44.594Z,1003.18
2018-07-11T05:54:25.113Z,1003.2
2018-07-11T05:55:05.744Z,1003.21
2018-07-11T05:55:46.321Z,1003.24
2018-07-11T05:56:26.799Z,1003.25
2018-07-11T05:57:07.301Z,1003.28
2018-07-11T05:57:47.849Z,1003.29
2018-07-11T05:58:28.374Z,1003.27
2018-07-11T05:59:08.908Z,1003.25
2018-07-11T05:59:49.435Z,1003.28
2018-07-11T06:00:29.942Z,1003.27
2018-07-11T06:01:10.510Z,1003.31
2018-07-11T06:01:51.961Z,1003.24
2018-07-11T06:02:32.427Z,1003.29
2018-07-11T06:03:12.942Z,1003.26
2018-07-11T06:03:53.473Z,1003.24
2018-07-11T06:04:33.964Z,1003.28
2018-07-11T06:05:14.497Z,1003.29
2018-07-11T06:05:55.006Z,1003.3
2018-07-11T06:06:35.550Z,1003.29
2018-07-11T06:07:16.059Z,1003.29
2018-07-11T06:07:56.582Z,1003.31
2018-07-11T06:08:37.120Z,1003.26
2018-07-11T06:09:17.638Z,1003.25
2018-07-11T06:09:58.173Z,1003.32
2018-07-11T06:10:38.710Z,1003.29
2018-07-11T06:11:19.214Z,1003.34
2018-07-11T06:11:59.736Z,1003.28
2018-07-11T06:12:40.276Z,1003.26
2018-07-11T06:13:20.831Z,1003.31
2018-07-11T06:14:01.299Z,1003.29
2018-07-11T06:14:41.832Z,1003.3
2018-07-11T06:15:22.362Z,1003.32
2018-07-11T06:16:02.915Z,1003.35
2018-07-11T06:16:43.443Z,1003.32
2018-07-11T06:17:23.969Z,1003.34
2018-07-11T06:18:04.488Z,1003.35
2018-07-11T06:18:45.001Z,1003.35
2018-07-11T06:19:27.344Z,1003.3
2018-07-11T06:20:07.866Z,1003.33
2018-07-11T06:20:48.390Z,1003.37
2018-07-11T06:21:28.909Z,1003.28
2018-07-11T06:22:09.421Z,1003.31
2018-07-11T06:22:49.969Z,1003.34
2018-07-11T06:23:30.499Z,1003.36
2018-07-11T06:24:11.033Z,1003.35
2018-07-11T06:24:51.564Z,1003.3
2018-07-11T06:25:32.100Z,1003.32
2018-07-11T06:26:12.638Z,1003.31
2018-07-11T06:26:53.135Z,1003.26
2018-07-11T06:27:33.664Z,1003.31
2018-07-11T06:28:14.198Z,1003.29
2018-07-11T06:28:54.734Z,1003.27
2018-07-11T06:29:35.264Z,1003.26
2018-07-11T06:30:15.777Z,1003.26
2018-07-11T06:30:56.295Z,1003.29
2018-07-11T06:31:36.828Z,1003.24
2018-07-11T06:32:17.364Z,1003.28
2018-07-11T06:32:57.932Z,1003.27
2018-07-11T06:33:38.473Z,1003.27
2018-07-11T06:34:18.966Z,1003.26
2018-07-11T06:34:59.513Z,1003.27
2018-07-11T06:35:39.999Z,1003.25
2018-07-11T06:36:20.542Z,1003.26
2018-07-11T06:37:01.080Z,1003.27
2018-07-11T06:37:41.591Z,1003.27
2018-07-11T06:38:22.133Z,1003.28
2018-07-11T06:39:02.671Z,1003.33
2018-07-11T06:39:43.194Z,1003.32
2018-07-11T06:40:23.732Z,1003.34
2018-07-11T06:41:04.246Z,1003.35
2018-07-11T06:41:44.781Z,1003.31
2018-07-11T06:42:25.321Z,1003.34
2018-07-11T06:43:05.846Z,1003.47
2018-07-11T06:43:46.359Z,1003.46
2018-07-11T06:44:26.915Z,1003.43
2018-07-11T06:45:07.441Z,1003.36
2018-07-11T06:45:47.966Z,1003.36
2018-07-11T06:46:28.491Z,1003.42
2018-07-11T06:47:09.033Z,1003.43
2018-07-11T06:47:49.573Z,1003.41
2018-07-11T06:48:30.110Z,1003.4
2018-07-11T06:49:10.609Z,1003.46
2018-07-11T06:49:51.147Z,1003.48
2018-07-11T06:50:31.637Z,1003.45
2018-07-11T06:51:12.130Z,1003.44
2018-07-11T06:51:52.672Z,1003.47
2018-07-11T06:52:33.179Z,1003.46
2018-07-11T06:53:13.707Z,1003.46
2018-07-11T06:53:54.246Z,1003.53
2018-07-11T06:54:34.784Z,1003.44
2018-07-11T06:55:15.280Z,1003.53
2018-07-11T06:55:55.782Z,1003.53
2018-07-11T06:56:36.294Z,1003.52
2018-07-11T06:57:16.820Z,1003.52
2018-07-11T06:57:57.350Z,1003.52
2018-07-11T06:58:37.861Z,1003.47
2018-07-11T06:59:18.387Z,1003.49
2018-07-11T06:59:58.928Z,1003.52
2018-07-11T07:00:39.433Z,1003.5
2018-07-11T07:01:19.947Z,1003.53
2018-07-11T07:02:00.473Z,1003.54
2018-07-11T07:02:40.986Z,1003.55
2018-07-11T07:03:21.530Z,1003.54
2018-07-11T07:04:02.052Z,1003.52
2018-07-11T07:04:42.537Z,1003.49
2018-07-11T07:05:23.050Z,1003.48
2018-07-11T07:06:03.575Z,1003.5
2018-07-11T07:06:44.099Z,1003.47
2018-07-11T07:07:24.616Z,1003.48
2018-07-11T07:08:05.144Z,1003.51
2018-07-11T07:08:45.801Z,1003.51
2018-07-11T07:09:26.317Z,1003.5
2018-07-11T07:10:06.836Z,1003.52
2018-07-11T07:10:47.377Z,1003.49
2018-07-11T07:11:27.888Z,1003.53
2018-07-11T07:12:08.430Z,1003.49
2018-07-11T07:12:48.958Z,1003.5
2018-07-11T07:13:29.485Z,1003.45
2018-07-11T07:14:09.992Z,1003.48
2018-07-11T07:14:50.504Z,1003.5
2018-07-11T07:15:31.017Z,1003.54
2018-07-11T07:16:11.518Z,1003.45
2018-07-11T07:16:52.058Z,1003.45
2018-07-11T07:17:32.640Z,1003.44
2018-07-11T07:18:13.154Z,1003.46
2018-07-11T07:18:53.708Z,1003.46
2018-07-11T07:19:34.257Z,1003.41
2018-07-11T07:20:14.805Z,1003.44
2018-07-11T07:20:55.296Z,1003.45
2018-07-11T07:21:35.854Z,1003.47
2018-07-11T07:22:16.348Z,1003.44
2018-07-11T07:22:56.863Z,1003.54
2018-07-11T07:23:37.385Z,1003.53
2018-07-11T07:24:17.904Z,1003.54
2018-07-11T07:24:58.422Z,1003.54
2018-07-11T07:25:38.948Z,1003.59
2018-07-11T07:26:19.483Z,1003.6
2018-07-11T07:27:00.033Z,1003.62
2018-07-11T07:27:40.530Z,1003.59
2018-07-11T07:28:21.035Z,1003.61
2018-07-11T07:29:01.628Z,1003.61
2018-07-11T07:29:42.197Z,1003.6
2018-07-11T07:30:22.666Z,1003.61
2018-07-11T07:31:03.180Z,1003.59
2018-07-11T07:31:43.707Z,1003.61
2018-07-11T07:32:24.250Z,1003.62
2018-07-11T07:33:04.753Z,1003.66
2018-07-11T07:33:45.271Z,1003.59
2018-07-11T07:34:25.807Z,1003.58
2018-07-11T07:35:06.444Z,1003.59
2018-07-11T07:35:46.978Z,1003.55
2018-07-11T07:36:27.530Z,1003.53
2018-07-11T07:37:08.045Z,1003.55
2018-07-11T07:37:48.573Z,1003.56
2018-07-11T07:38:29.079Z,1003.55
2018-07-11T07:39:09.593Z,1003.55
2018-07-11T07:39:50.109Z,1003.55
2018-07-11T07:40:30.634Z,1003.57
2018-07-11T07:41:11.160Z,1003.55
2018-07-11T07:41:51.668Z,1003.55
2018-07-11T07:42:32.178Z,1003.57
2018-07-11T07:43:12.698Z,1003.57
2018-07-11T07:43:53.213Z,1003.54
2018-07-11T07:44:33.730Z,1003.57
2018-07-11T07:45:14.236Z,1003.59
2018-07-11T07:45:54.774Z,1003.59
2018-07-11T07:46:35.296Z,1003.56
2018-07-11T07:47:15.820Z,1003.64
2018-07-11T07:47:56.349Z,1003.59
2018-07-11T07:48:36.843Z,1003.56
2018-07-11T07:49:17.366Z,1003.6
2018-07-11T07:49:57.876Z,1003.6
2018-07-11T07:50:38.377Z,1003.63
2018-07-11T07:51:18.908Z,1003.58
2018-07-11T07:51:59.419Z,1003.59
2018-07-11T07:52:39.945Z,1003.61
2018-07-11T07:53:20.502Z,1003.62
2018-07-11T07:54:01.020Z,1003.61
2018-07-11T07:54:41.519Z,1003.61
2018-07-11T07:55:22.019Z,1003.56
2018-07-11T07:56:02.547Z,1003.62
2018-07-11T07:56:43.054Z,1003.58
2018-07-11T07:57:23.591Z,1003.56
2018-07-11T07:58:04.105Z,1003.55
2018-07-11T07:58:44.621Z,1003.56
2018-07-11T07:59:25.134Z,1003.53
2018-07-11T08:00:05.656Z,1003.57
2018-07-11T08:00:46.181Z,1003.51
2018-07-11T08:01:26.702Z,1003.58
2018-07-11T08:02:07.265Z,1003.57
2018-07-11T08:02:47.795Z,1003.55
2018-07-11T08:03:28.246Z,1003.64
2018-07-11T08:04:08.771Z,1003.6
2018-07-11T08:04:49.289Z,1003.66
2018-07-11T08:05:29.820Z,1003.63
2018-07-11T08:06:10.358Z,1003.62
2018-07-11T08:06:50.952Z,1003.61
2018-07-11T08:07:31.485Z,1003.63
2018-07-11T08:08:12.016Z,1003.64
2018-07-11T08:08:52.555Z,1003.63
2018-07-11T08:09:33.096Z,1003.62
2018-07-11T08:10:13.638Z,1003.63
2018-07-11T08:10:54.183Z,1003.63
2018-07-11T08:11:34.710Z,1003.61
2018-07-11T08:12:15.244Z,1003.64
2018-07-11T08:12:55.823Z,1003.62
2018-07-11T08:13:36.290Z,1003.6